sensor_id;sensor_type;location;lat;lon;timestamp;temperature;humidity
80412;SHT30;69749;42.684;23.360;2023-05-02T00:00:15;13.75;58.93
80412;SHT30;69749;42.684;23.360;2023-05-02T00:02:40;13.66;58.92
80412;SHT30;69749;42.684;23.360;2023-05-02T00:05:06;13.60;59.33
80412;SHT30;69749;42.684;23.360;2023-05-02T00:07:32;13.70;59.19
80412;SHT30;69749;42.684;23.360;2023-05-02T00:09:58;13.66;59.26
80412;SHT30;69749;42.684;23.360;2023-05-02T00:12:26;13.71;59.21
80412;SHT30;69749;42.684;23.360;2023-05-02T00:14:51;13.61;59.33
80412;SHT30;69749;42.684;23.360;2023-05-02T00:17:19;13.66;59.38
80412;SHT30;69749;42.684;23.360;2023-05-02T00:19:45;13.60;59.20
80412;SHT30;69749;42.684;23.360;2023-05-02T00:22:10;13.64;59.21
80412;SHT30;69749;42.684;23.360;2023-05-02T00:24:36;13.63;59.23
80412;SHT30;69749;42.684;23.360;2023-05-02T00:27:01;13.61;59.45
80412;SHT30;69749;42.684;23.360;2023-05-02T00:29:27;13.63;59.46
80412;SHT30;69749;42.684;23.360;2023-05-02T00:31:52;13.60;59.39
80412;SHT30;69749;42.684;23.360;2023-05-02T00:34:18;13.57;59.52
80412;SHT30;69749;42.684;23.360;2023-05-02T00:36:43;13.60;59.45
80412;SHT30;69749;42.684;23.360;2023-05-02T00:39:09;13.63;59.14
80412;SHT30;69749;42.684;23.360;2023-05-02T00:41:35;13.53;59.36
80412;SHT30;69749;42.684;23.360;2023-05-02T00:44:00;13.64;59.75
80412;SHT30;69749;42.684;23.360;2023-05-02T00:46:26;13.74;59.43
80412;SHT30;69749;42.684;23.360;2023-05-02T00:48:51;13.81;58.95
80412;SHT30;69749;42.684;23.360;2023-05-02T00:51:17;13.79;58.65
80412;SHT30;69749;42.684;23.360;2023-05-02T00:53:43;13.84;58.76
80412;SHT30;69749;42.684;23.360;2023-05-02T00:56:08;13.92;58.66
80412;SHT30;69749;42.684;23.360;2023-05-02T00:58:34;13.88;58.96
80412;SHT30;69749;42.684;23.360;2023-05-02T01:01:14;13.87;58.85
80412;SHT30;69749;42.684;23.360;2023-05-02T01:03:43;13.82;58.84
80412;SHT30;69749;42.684;23.360;2023-05-02T01:09:18;13.79;58.95
80412;SHT30;69749;42.684;23.360;2023-05-02T01:12:15;13.79;59.46
80412;SHT30;69749;42.684;23.360;2023-05-02T01:14:45;13.74;59.55
80412;SHT30;69749;42.684;23.360;2023-05-02T01:17:13;13.78;59.41
80412;SHT30;69749;42.684;23.360;2023-05-02T01:19:50;13.84;60.12
80412;SHT30;69749;42.684;23.360;2023-05-02T01:22:18;13.85;60.64
80412;SHT30;69749;42.684;23.360;2023-05-02T01:24:53;13.88;59.50
80412;SHT30;69749;42.684;23.360;2023-05-02T01:30:23;13.71;60.16
80412;SHT30;69749;42.684;23.360;2023-05-02T01:32:52;13.71;60.09
80412;SHT30;69749;42.684;23.360;2023-05-02T01:35:20;13.64;60.28
80412;SHT30;69749;42.684;23.360;2023-05-02T01:37:47;13.61;60.53
80412;SHT30;69749;42.684;23.360;2023-05-02T01:40:17;13.54;60.78
80412;SHT30;69749;42.684;23.360;2023-05-02T01:42:44;13.54;61.00
80412;SHT30;69749;42.684;23.360;2023-05-02T01:45:11;13.60;60.61
80412;SHT30;69749;42.684;23.360;2023-05-02T01:47:37;13.57;60.72
80412;SHT30;69749;42.684;23.360;2023-05-02T01:50:06;13.47;61.23
80412;SHT30;69749;42.684;23.360;2023-05-02T01:52:33;13.42;61.42
80412;SHT30;69749;42.684;23.360;2023-05-02T01:55:00;13.40;61.63
80412;SHT30;69749;42.684;23.360;2023-05-02T01:57:26;13.23;62.00
80412;SHT30;69749;42.684;23.360;2023-05-02T01:59:55;13.32;62.07
80412;SHT30;69749;42.684;23.360;2023-05-02T02:02:23;13.23;62.26
80412;SHT30;69749;42.684;23.360;2023-05-02T02:04:52;13.27;62.08
80412;SHT30;69749;42.684;23.360;2023-05-02T02:07:19;13.23;62.28
80412;SHT30;69749;42.684;23.360;2023-05-02T02:09:45;13.10;62.61
80412;SHT30;69749;42.684;23.360;2023-05-02T02:12:15;13.18;62.49
80412;SHT30;69749;42.684;23.360;2023-05-02T02:14:56;13.03;62.76
80412;SHT30;69749;42.684;23.360;2023-05-02T02:17:36;13.12;62.50
80412;SHT30;69749;42.684;23.360;2023-05-02T02:20:04;13.12;62.64
80412;SHT30;69749;42.684;23.360;2023-05-02T02:22:33;12.99;62.85
80412;SHT30;69749;42.684;23.360;2023-05-02T02:25:02;13.00;62.97
80412;SHT30;69749;42.684;23.360;2023-05-02T02:27:29;12.92;63.16
80412;SHT30;69749;42.684;23.360;2023-05-02T02:29:55;12.98;63.03
80412;SHT30;69749;42.684;23.360;2023-05-02T02:32:20;13.03;62.79
80412;SHT30;69749;42.684;23.360;2023-05-02T02:34:46;13.02;62.78
80412;SHT30;69749;42.684;23.360;2023-05-02T02:37:17;13.08;62.98
80412;SHT30;69749;42.684;23.360;2023-05-02T02:39:50;13.18;62.69
80412;SHT30;69749;42.684;23.360;2023-05-02T02:42:32;13.16;62.68
80412;SHT30;69749;42.684;23.360;2023-05-02T02:47:49;13.19;62.67
80412;SHT30;69749;42.684;23.360;2023-05-02T02:50:23;13.23;62.50
80412;SHT30;69749;42.684;23.360;2023-05-02T02:52:59;13.16;62.25
80412;SHT30;69749;42.684;23.360;2023-05-02T02:55:48;13.30;62.00
80412;SHT30;69749;42.684;23.360;2023-05-02T02:58:42;13.30;62.03
80412;SHT30;69749;42.684;23.360;2023-05-02T03:01:19;13.23;62.07
80412;SHT30;69749;42.684;23.360;2023-05-02T03:03:45;13.19;62.29
80412;SHT30;69749;42.684;23.360;2023-05-02T03:06:12;13.24;62.34
80412;SHT30;69749;42.684;23.360;2023-05-02T03:08:39;13.24;62.59
80412;SHT30;69749;42.684;23.360;2023-05-02T03:11:05;13.24;61.94
80412;SHT30;69749;42.684;23.360;2023-05-02T03:13:30;13.24;61.85
80412;SHT30;69749;42.684;23.360;2023-05-02T03:18:38;13.23;61.98
80412;SHT30;69749;42.684;23.360;2023-05-02T03:21:03;13.24;62.02
80412;SHT30;69749;42.684;23.360;2023-05-02T03:23:29;13.24;62.04
80412;SHT30;69749;42.684;23.360;2023-05-02T03:25:54;13.32;62.01
80412;SHT30;69749;42.684;23.360;2023-05-02T03:28:20;13.36;62.18
80412;SHT30;69749;42.684;23.360;2023-05-02T03:30:45;13.36;62.02
80412;SHT30;69749;42.684;23.360;2023-05-02T03:33:10;13.43;61.43
80412;SHT30;69749;42.684;23.360;2023-05-02T03:35:36;13.47;61.43
80412;SHT30;69749;42.684;23.360;2023-05-02T03:38:01;13.49;61.36
80412;SHT30;69749;42.684;23.360;2023-05-02T03:40:26;13.35;61.50
80412;SHT30;69749;42.684;23.360;2023-05-02T03:42:52;13.36;61.65
80412;SHT30;69749;42.684;23.360;2023-05-02T03:45:17;13.43;61.47
80412;SHT30;69749;42.684;23.360;2023-05-02T03:47:43;13.35;61.67
80412;SHT30;69749;42.684;23.360;2023-05-02T03:50:08;13.22;62.13
80412;SHT30;69749;42.684;23.360;2023-05-02T03:52:34;13.20;62.16
80412;SHT30;69749;42.684;23.360;2023-05-02T03:55:00;13.16;62.47
80412;SHT30;69749;42.684;23.360;2023-05-02T03:57:28;13.10;62.42
80412;SHT30;69749;42.684;23.360;2023-05-02T03:59:54;13.13;62.73
80412;SHT30;69749;42.684;23.360;2023-05-02T04:02:20;13.10;62.48
80412;SHT30;69749;42.684;23.360;2023-05-02T04:04:45;13.23;62.27
80412;SHT30;69749;42.684;23.360;2023-05-02T04:07:11;13.23;62.30
80412;SHT30;69749;42.684;23.360;2023-05-02T04:09:42;13.30;63.00
80412;SHT30;69749;42.684;23.360;2023-05-02T04:12:08;13.30;62.05
80412;SHT30;69749;42.684;23.360;2023-05-02T04:14:33;13.40;61.72
80412;SHT30;69749;42.684;23.360;2023-05-02T04:16:59;13.29;61.73
80412;SHT30;69749;42.684;23.360;2023-05-02T04:19:24;13.39;61.36
80412;SHT30;69749;42.684;23.360;2023-05-02T04:21:50;13.30;61.49
80412;SHT30;69749;42.684;23.360;2023-05-02T04:24:15;13.20;60.94
80412;SHT30;69749;42.684;23.360;2023-05-02T04:26:41;13.10;61.31
80412;SHT30;69749;42.684;23.360;2023-05-02T04:29:06;13.02;61.68
80412;SHT30;69749;42.684;23.360;2023-05-02T04:31:32;13.13;61.16
80412;SHT30;69749;42.684;23.360;2023-05-02T04:33:57;13.20;60.77
80412;SHT30;69749;42.684;23.360;2023-05-02T04:36:23;13.37;60.73
80412;SHT30;69749;42.684;23.360;2023-05-02T04:38:50;13.30;60.89
80412;SHT30;69749;42.684;23.360;2023-05-02T04:41:15;13.23;61.27
80412;SHT30;69749;42.684;23.360;2023-05-02T04:43:41;13.23;60.74
80412;SHT30;69749;42.684;23.360;2023-05-02T04:46:06;13.27;60.64
80412;SHT30;69749;42.684;23.360;2023-05-02T04:48:32;13.35;60.52
80412;SHT30;69749;42.684;23.360;2023-05-02T04:50:57;13.36;60.50
80412;SHT30;69749;42.684;23.360;2023-05-02T04:53:23;13.44;60.05
80412;SHT30;69749;42.684;23.360;2023-05-02T04:55:48;13.42;60.13
80412;SHT30;69749;42.684;23.360;2023-05-02T04:58:14;13.46;59.41
80412;SHT30;69749;42.684;23.360;2023-05-02T05:00:39;13.56;59.05
80412;SHT30;69749;42.684;23.360;2023-05-02T05:03:05;13.73;58.84
80412;SHT30;69749;42.684;23.360;2023-05-02T05:05:31;13.84;58.47
80412;SHT30;69749;42.684;23.360;2023-05-02T05:07:56;14.01;58.48
80412;SHT30;69749;42.684;23.360;2023-05-02T05:10:22;14.07;57.22
80412;SHT30;69749;42.684;23.360;2023-05-02T05:12:47;14.25;58.23
80412;SHT30;69749;42.684;23.360;2023-05-02T05:15:14;14.45;56.63
80412;SHT30;69749;42.684;23.360;2023-05-02T05:17:39;14.57;55.76
80412;SHT30;69749;42.684;23.360;2023-05-02T05:20:06;14.81;55.11
80412;SHT30;69749;42.684;23.360;2023-05-02T05:22:40;14.81;54.86
80412;SHT30;69749;42.684;23.360;2023-05-02T05:25:07;14.94;54.53
80412;SHT30;69749;42.684;23.360;2023-05-02T05:27:33;14.87;53.95
80412;SHT30;69749;42.684;23.360;2023-05-02T05:29:59;15.14;52.46
80412;SHT30;69749;42.684;23.360;2023-05-02T05:32:24;15.48;53.07
80412;SHT30;69749;42.684;23.360;2023-05-02T05:34:53;15.73;51.39
80412;SHT30;69749;42.684;23.360;2023-05-02T05:37:19;15.96;50.86
80412;SHT30;69749;42.684;23.360;2023-05-02T05:39:45;16.14;50.09
80412;SHT30;69749;42.684;23.360;2023-05-02T05:42:11;16.24;48.96
80412;SHT30;69749;42.684;23.360;2023-05-02T05:44:37;16.13;48.78
80412;SHT30;69749;42.684;23.360;2023-05-02T05:47:03;16.40;48.31
80412;SHT30;69749;42.684;23.360;2023-05-02T05:49:29;16.73;48.18
80412;SHT30;69749;42.684;23.360;2023-05-02T05:51:57;16.95;46.62
80412;SHT30;69749;42.684;23.360;2023-05-02T05:54:23;17.27;46.28
80412;SHT30;69749;42.684;23.360;2023-05-02T05:56:48;17.63;45.60
80412;SHT30;69749;42.684;23.360;2023-05-02T05:59:14;17.84;44.89
80412;SHT30;69749;42.684;23.360;2023-05-02T06:01:40;18.04;44.40
80412;SHT30;69749;42.684;23.360;2023-05-02T06:04:05;18.12;43.43
80412;SHT30;69749;42.684;23.360;2023-05-02T06:06:32;18.42;43.32
80412;SHT30;69749;42.684;23.360;2023-05-02T06:08:57;18.59;42.61
80412;SHT30;69749;42.684;23.360;2023-05-02T06:11:23;19.04;41.73
80412;SHT30;69749;42.684;23.360;2023-05-02T06:13:51;19.42;41.30
80412;SHT30;69749;42.684;23.360;2023-05-02T06:16:17;19.96;40.28
80412;SHT30;69749;42.684;23.360;2023-05-02T06:18:43;20.71;39.36
80412;SHT30;69749;42.684;23.360;2023-05-02T06:21:09;21.65;36.34
80412;SHT30;69749;42.684;23.360;2023-05-02T06:23:34;22.15;34.84
80412;SHT30;69749;42.684;23.360;2023-05-02T06:26:01;21.74;34.83
80412;SHT30;69749;42.684;23.360;2023-05-02T06:28:27;22.70;33.51
80412;SHT30;69749;42.684;23.360;2023-05-02T06:31:00;23.11;32.49
80412;SHT30;69749;42.684;23.360;2023-05-02T06:33:29;23.79;31.12
80412;SHT30;69749;42.684;23.360;2023-05-02T06:35:56;24.99;29.97
80412;SHT30;69749;42.684;23.360;2023-05-02T06:38:22;25.26;29.41
80412;SHT30;69749;42.684;23.360;2023-05-02T06:40:47;25.50;28.37
80412;SHT30;69749;42.684;23.360;2023-05-02T06:43:13;24.92;29.11
80412;SHT30;69749;42.684;23.360;2023-05-02T06:45:39;25.13;29.18
80412;SHT30;69749;42.684;23.360;2023-05-02T06:48:05;25.92;28.37
80412;SHT30;69749;42.684;23.360;2023-05-02T06:50:31;25.87;28.34
80412;SHT30;69749;42.684;23.360;2023-05-02T06:52:57;25.85;28.00
80412;SHT30;69749;42.684;23.360;2023-05-02T06:55:22;26.52;26.84
80412;SHT30;69749;42.684;23.360;2023-05-02T06:57:48;27.89;25.69
80412;SHT30;69749;42.684;23.360;2023-05-02T07:00:15;28.75;24.49
80412;SHT30;69749;42.684;23.360;2023-05-02T07:02:41;28.67;24.92
80412;SHT30;69749;42.684;23.360;2023-05-02T07:05:07;28.16;24.82
80412;SHT30;69749;42.684;23.360;2023-05-02T07:07:32;27.79;25.12
80412;SHT30;69749;42.684;23.360;2023-05-02T07:09:57;28.17;24.72
80412;SHT30;69749;42.684;23.360;2023-05-02T07:12:27;28.84;24.34
80412;SHT30;69749;42.684;23.360;2023-05-02T07:14:52;29.67;22.97
80412;SHT30;69749;42.684;23.360;2023-05-02T07:17:18;29.23;23.02
80412;SHT30;69749;42.684;23.360;2023-05-02T07:19:43;27.95;24.47
80412;SHT30;69749;42.684;23.360;2023-05-02T07:22:09;28.40;23.88
80412;SHT30;69749;42.684;23.360;2023-05-02T07:24:34;28.37;23.85
80412;SHT30;69749;42.684;23.360;2023-05-02T07:27:00;27.76;24.50
80412;SHT30;69749;42.684;23.360;2023-05-02T07:29:25;28.12;24.46
80412;SHT30;69749;42.684;23.360;2023-05-02T07:31:51;27.82;24.31
80412;SHT30;69749;42.684;23.360;2023-05-02T07:34:16;28.45;24.31
80412;SHT30;69749;42.684;23.360;2023-05-02T07:36:42;28.47;23.91
80412;SHT30;69749;42.684;23.360;2023-05-02T07:39:07;27.89;24.14
80412;SHT30;69749;42.684;23.360;2023-05-02T07:41:32;27.24;25.03
80412;SHT30;69749;42.684;23.360;2023-05-02T07:43:58;27.21;25.27
80412;SHT30;69749;42.684;23.360;2023-05-02T07:46:23;25.46;26.94
80412;SHT30;69749;42.684;23.360;2023-05-02T07:48:49;25.66;26.99
80412;SHT30;69749;42.684;23.360;2023-05-02T07:51:15;25.32;27.61
80412;SHT30;69749;42.684;23.360;2023-05-02T07:53:41;24.02;28.82
80412;SHT30;69749;42.684;23.360;2023-05-02T07:56:06;23.99;28.93
80412;SHT30;69749;42.684;23.360;2023-05-02T07:58:34;24.31;28.97
80412;SHT30;69749;42.684;23.360;2023-05-02T08:01:00;24.98;28.63
80412;SHT30;69749;42.684;23.360;2023-05-02T08:03:25;24.17;29.24
80412;SHT30;69749;42.684;23.360;2023-05-02T08:05:55;24.02;29.34
80412;SHT30;69749;42.684;23.360;2023-05-02T08:08:20;23.65;29.99
80412;SHT30;69749;42.684;23.360;2023-05-02T08:10:46;22.76;30.64
80412;SHT30;69749;42.684;23.360;2023-05-02T08:13:11;22.74;31.31
80412;SHT30;69749;42.684;23.360;2023-05-02T08:15:37;23.25;30.58
80412;SHT30;69749;42.684;23.360;2023-05-02T08:18:02;23.27;29.81
80412;SHT30;69749;42.684;23.360;2023-05-02T08:20:28;23.37;30.14
80412;SHT30;69749;42.684;23.360;2023-05-02T08:22:53;22.96;30.84
80412;SHT30;69749;42.684;23.360;2023-05-02T08:25:19;22.76;30.72
80412;SHT30;69749;42.684;23.360;2023-05-02T08:27:44;22.57;31.42
80412;SHT30;69749;42.684;23.360;2023-05-02T08:30:10;22.93;30.55
80412;SHT30;69749;42.684;23.360;2023-05-02T08:32:36;23.19;30.42
80412;SHT30;69749;42.684;23.360;2023-05-02T08:35:01;23.01;30.02
80412;SHT30;69749;42.684;23.360;2023-05-02T08:37:27;22.45;30.53
80412;SHT30;69749;42.684;23.360;2023-05-02T08:39:52;22.56;30.97
80412;SHT30;69749;42.684;23.360;2023-05-02T08:42:18;23.01;30.80
80412;SHT30;69749;42.684;23.360;2023-05-02T08:44:46;23.37;30.06
80412;SHT30;69749;42.684;23.360;2023-05-02T08:47:12;22.87;30.87
80412;SHT30;69749;42.684;23.360;2023-05-02T08:49:38;22.83;30.47
80412;SHT30;69749;42.684;23.360;2023-05-02T08:52:06;21.97;30.69
80412;SHT30;69749;42.684;23.360;2023-05-02T08:54:33;21.98;32.11
80412;SHT30;69749;42.684;23.360;2023-05-02T08:56:58;22.39;31.65
80412;SHT30;69749;42.684;23.360;2023-05-02T08:59:26;22.13;31.41
80412;SHT30;69749;42.684;23.360;2023-05-02T09:01:58;21.81;32.42
80412;SHT30;69749;42.684;23.360;2023-05-02T09:04:26;22.30;31.69
80412;SHT30;69749;42.684;23.360;2023-05-02T09:06:54;22.02;31.26
80412;SHT30;69749;42.684;23.360;2023-05-02T09:09:19;21.89;31.90
80412;SHT30;69749;42.684;23.360;2023-05-02T09:11:46;21.95;31.25
80412;SHT30;69749;42.684;23.360;2023-05-02T09:14:15;22.25;31.42
80412;SHT30;69749;42.684;23.360;2023-05-02T09:16:41;22.29;30.90
80412;SHT30;69749;42.684;23.360;2023-05-02T09:19:06;21.74;31.42
80412;SHT30;69749;42.684;23.360;2023-05-02T09:21:38;22.02;31.05
80412;SHT30;69749;42.684;23.360;2023-05-02T09:24:21;21.94;30.78
80412;SHT30;69749;42.684;23.360;2023-05-02T09:29:22;22.13;30.75
80412;SHT30;69749;42.684;23.360;2023-05-02T09:31:48;21.97;31.34
80412;SHT30;69749;42.684;23.360;2023-05-02T09:34:15;21.91;30.46
80412;SHT30;69749;42.684;23.360;2023-05-02T09:36:46;22.16;30.50
80412;SHT30;69749;42.684;23.360;2023-05-02T09:39:13;21.80;30.79
80412;SHT30;69749;42.684;23.360;2023-05-02T09:41:43;21.94;30.99
80412;SHT30;69749;42.684;23.360;2023-05-02T09:44:10;21.74;30.71
80412;SHT30;69749;42.684;23.360;2023-05-02T09:46:44;22.05;30.77
80412;SHT30;69749;42.684;23.360;2023-05-02T09:49:10;21.89;30.79
80412;SHT30;69749;42.684;23.360;2023-05-02T09:51:36;22.13;30.74
80412;SHT30;69749;42.684;23.360;2023-05-02T09:54:02;21.81;30.61
80412;SHT30;69749;42.684;23.360;2023-05-02T09:56:27;22.01;30.57
80412;SHT30;69749;42.684;23.360;2023-05-02T09:59:12;22.29;30.47
80412;SHT30;69749;42.684;23.360;2023-05-02T10:01:39;22.52;30.18
80412;SHT30;69749;42.684;23.360;2023-05-02T10:04:09;22.16;29.85
80412;SHT30;69749;42.684;23.360;2023-05-02T10:06:36;22.09;30.19
80412;SHT30;69749;42.684;23.360;2023-05-02T10:09:01;21.65;30.30
80412;SHT30;69749;42.684;23.360;2023-05-02T10:11:28;21.22;31.06
80412;SHT30;69749;42.684;23.360;2023-05-02T10:13:57;21.36;31.15
80412;SHT30;69749;42.684;23.360;2023-05-02T10:16:26;21.51;30.88
80412;SHT30;69749;42.684;23.360;2023-05-02T10:19:02;21.78;31.07
80412;SHT30;69749;42.684;23.360;2023-05-02T10:21:27;21.99;30.98
80412;SHT30;69749;42.684;23.360;2023-05-02T10:23:54;22.04;30.12
80412;SHT30;69749;42.684;23.360;2023-05-02T10:26:21;22.16;29.70
80412;SHT30;69749;42.684;23.360;2023-05-02T10:28:48;22.30;30.09
80412;SHT30;69749;42.684;23.360;2023-05-02T10:31:14;22.45;30.20
80412;SHT30;69749;42.684;23.360;2023-05-02T10:33:40;22.33;29.76
80412;SHT30;69749;42.684;23.360;2023-05-02T10:36:08;21.77;30.22
80412;SHT30;69749;42.684;23.360;2023-05-02T10:38:37;22.02;29.83
80412;SHT30;69749;42.684;23.360;2023-05-02T10:41:16;22.13;31.78
80412;SHT30;69749;42.684;23.360;2023-05-02T10:43:47;22.09;30.40
80412;SHT30;69749;42.684;23.360;2023-05-02T10:46:32;21.30;31.71
80412;SHT30;69749;42.684;23.360;2023-05-02T10:49:11;21.68;30.33
80412;SHT30;69749;42.684;23.360;2023-05-02T10:51:38;21.97;30.43
80412;SHT30;69749;42.684;23.360;2023-05-02T10:59:29;22.49;29.40
80412;SHT30;69749;42.684;23.360;2023-05-02T11:01:55;22.43;30.07
80412;SHT30;69749;42.684;23.360;2023-05-02T11:04:22;22.29;30.10
80412;SHT30;69749;42.684;23.360;2023-05-02T11:11:54;21.99;29.98
80412;SHT30;69749;42.684;23.360;2023-05-02T11:19:22;21.84;30.60
80412;SHT30;69749;42.684;23.360;2023-05-02T11:21:47;21.91;31.05
80412;SHT30;69749;42.684;23.360;2023-05-02T11:24:41;22.04;30.87
80412;SHT30;69749;42.684;23.360;2023-05-02T11:29:57;22.08;30.82
80412;SHT30;69749;42.684;23.360;2023-05-02T11:32:22;22.08;30.45
80412;SHT30;69749;42.684;23.360;2023-05-02T11:34:50;21.84;30.29
80412;SHT30;69749;42.684;23.360;2023-05-02T11:37:18;21.85;30.47
80412;SHT30;69749;42.684;23.360;2023-05-02T11:39:44;22.08;31.12
80412;SHT30;69749;42.684;23.360;2023-05-02T11:42:32;22.05;31.59
80412;SHT30;69749;42.684;23.360;2023-05-02T11:44:59;22.04;30.52
80412;SHT30;69749;42.684;23.360;2023-05-02T11:47:26;21.85;30.98
80412;SHT30;69749;42.684;23.360;2023-05-02T11:49:56;21.94;30.82
80412;SHT30;69749;42.684;23.360;2023-05-02T11:52:22;22.05;31.09
80412;SHT30;69749;42.684;23.360;2023-05-02T11:54:48;21.98;31.02
80412;SHT30;69749;42.684;23.360;2023-05-02T11:57:14;22.04;31.01
80412;SHT30;69749;42.684;23.360;2023-05-02T12:02:15;21.03;31.77
80412;SHT30;69749;42.684;23.360;2023-05-02T12:04:43;21.33;32.10
80412;SHT30;69749;42.684;23.360;2023-05-02T12:07:09;21.46;32.17
80412;SHT30;69749;42.684;23.360;2023-05-02T12:09:34;21.65;31.75
80412;SHT30;69749;42.684;23.360;2023-05-02T12:12:00;21.87;31.92
80412;SHT30;69749;42.684;23.360;2023-05-02T12:14:28;21.78;31.18
80412;SHT30;69749;42.684;23.360;2023-05-02T12:16:54;21.49;31.23
80412;SHT30;69749;42.684;23.360;2023-05-02T12:19:20;21.23;31.43
80412;SHT30;69749;42.684;23.360;2023-05-02T12:21:46;21.39;30.97
80412;SHT30;69749;42.684;23.360;2023-05-02T12:24:13;21.10;31.15
80412;SHT30;69749;42.684;23.360;2023-05-02T12:26:39;21.30;31.67
80412;SHT30;69749;42.684;23.360;2023-05-02T12:29:04;21.46;30.85
80412;SHT30;69749;42.684;23.360;2023-05-02T12:31:32;21.30;31.23
80412;SHT30;69749;42.684;23.360;2023-05-02T12:33:57;21.50;31.45
80412;SHT30;69749;42.684;23.360;2023-05-02T12:36:24;21.14;30.63
80412;SHT30;69749;42.684;23.360;2023-05-02T12:38:52;21.19;30.23
80412;SHT30;69749;42.684;23.360;2023-05-02T12:41:32;21.29;31.18
80412;SHT30;69749;42.684;23.360;2023-05-02T12:43:57;21.40;30.29
80412;SHT30;69749;42.684;23.360;2023-05-02T12:46:24;21.41;30.48
80412;SHT30;69749;42.684;23.360;2023-05-02T12:49:06;21.37;30.16
80412;SHT30;69749;42.684;23.360;2023-05-02T12:51:37;21.16;29.92
80412;SHT30;69749;42.684;23.360;2023-05-02T12:54:03;21.19;29.72
80412;SHT30;69749;42.684;23.360;2023-05-02T12:56:28;21.18;29.78
80412;SHT30;69749;42.684;23.360;2023-05-02T12:58:56;21.14;30.22
80412;SHT30;69749;42.684;23.360;2023-05-02T13:01:25;21.36;30.58
80412;SHT30;69749;42.684;23.360;2023-05-02T13:03:51;20.92;30.45
80412;SHT30;69749;42.684;23.360;2023-05-02T13:06:17;20.75;30.66
80412;SHT30;69749;42.684;23.360;2023-05-02T13:08:43;20.99;30.52
80412;SHT30;69749;42.684;23.360;2023-05-02T13:11:08;20.99;30.56
80412;SHT30;69749;42.684;23.360;2023-05-02T13:13:34;20.99;30.20
80412;SHT30;69749;42.684;23.360;2023-05-02T13:15:59;20.88;31.01
80412;SHT30;69749;42.684;23.360;2023-05-02T13:18:25;20.81;30.36
80412;SHT30;69749;42.684;23.360;2023-05-02T13:20:52;20.65;30.35
80412;SHT30;69749;42.684;23.360;2023-05-02T13:23:17;20.79;30.43
80412;SHT30;69749;42.684;23.360;2023-05-02T13:25:43;20.69;30.80
80412;SHT30;69749;42.684;23.360;2023-05-02T13:28:08;20.81;30.58
80412;SHT30;69749;42.684;23.360;2023-05-02T13:30:34;20.91;30.61
80412;SHT30;69749;42.684;23.360;2023-05-02T13:32:59;20.75;30.22
80412;SHT30;69749;42.684;23.360;2023-05-02T13:35:24;20.83;30.62
80412;SHT30;69749;42.684;23.360;2023-05-02T13:37:50;20.79;30.28
80412;SHT30;69749;42.684;23.360;2023-05-02T13:40:16;20.86;30.30
80412;SHT30;69749;42.684;23.360;2023-05-02T13:42:41;20.92;30.37
80412;SHT30;69749;42.684;23.360;2023-05-02T13:45:07;20.82;30.42
80412;SHT30;69749;42.684;23.360;2023-05-02T13:47:32;20.88;30.52
80412;SHT30;69749;42.684;23.360;2023-05-02T13:49:58;20.85;29.96
80412;SHT30;69749;42.684;23.360;2023-05-02T13:52:23;20.78;30.20
80412;SHT30;69749;42.684;23.360;2023-05-02T13:54:49;20.55;30.49
80412;SHT30;69749;42.684;23.360;2023-05-02T13:57:14;20.68;30.51
80412;SHT30;69749;42.684;23.360;2023-05-02T13:59:40;20.71;30.34
80412;SHT30;69749;42.684;23.360;2023-05-02T14:02:06;20.44;30.24
80412;SHT30;69749;42.684;23.360;2023-05-02T14:04:31;20.48;30.40
80412;SHT30;69749;42.684;23.360;2023-05-02T14:06:57;20.49;30.18
80412;SHT30;69749;42.684;23.360;2023-05-02T14:09:22;20.52;30.52
80412;SHT30;69749;42.684;23.360;2023-05-02T14:11:48;20.56;30.18
80412;SHT30;69749;42.684;23.360;2023-05-02T14:14:13;20.54;30.33
80412;SHT30;69749;42.684;23.360;2023-05-02T14:16:39;20.58;30.09
80412;SHT30;69749;42.684;23.360;2023-05-02T14:19:04;20.35;30.18
80412;SHT30;69749;42.684;23.360;2023-05-02T14:21:30;20.44;30.41
80412;SHT30;69749;42.684;23.360;2023-05-02T14:23:56;20.54;30.04
80412;SHT30;69749;42.684;23.360;2023-05-02T14:26:21;20.54;30.15
80412;SHT30;69749;42.684;23.360;2023-05-02T14:28:47;20.52;30.36
80412;SHT30;69749;42.684;23.360;2023-05-02T14:31:12;20.40;30.57
80412;SHT30;69749;42.684;23.360;2023-05-02T14:33:38;20.45;30.60
80412;SHT30;69749;42.684;23.360;2023-05-02T14:36:04;20.52;30.41
80412;SHT30;69749;42.684;23.360;2023-05-02T14:38:29;20.49;30.28
80412;SHT30;69749;42.684;23.360;2023-05-02T14:40:55;20.64;30.35
80412;SHT30;69749;42.684;23.360;2023-05-02T14:43:20;20.68;30.58
80412;SHT30;69749;42.684;23.360;2023-05-02T14:45:46;20.62;30.29
80412;SHT30;69749;42.684;23.360;2023-05-02T14:48:11;20.65;30.59
80412;SHT30;69749;42.684;23.360;2023-05-02T14:50:38;20.40;30.48
80412;SHT30;69749;42.684;23.360;2023-05-02T14:53:04;20.40;30.78
80412;SHT30;69749;42.684;23.360;2023-05-02T14:55:35;20.56;30.40
80412;SHT30;69749;42.684;23.360;2023-05-02T14:58:00;20.58;30.72
80412;SHT30;69749;42.684;23.360;2023-05-02T15:00:25;20.65;30.65
80412;SHT30;69749;42.684;23.360;2023-05-02T15:02:51;20.43;30.62
80412;SHT30;69749;42.684;23.360;2023-05-02T15:05:16;20.37;30.39
80412;SHT30;69749;42.684;23.360;2023-05-02T15:07:42;20.40;30.44
80412;SHT30;69749;42.684;23.360;2023-05-02T15:10:08;20.35;30.57
80412;SHT30;69749;42.684;23.360;2023-05-02T15:12:34;20.30;30.48
80412;SHT30;69749;42.684;23.360;2023-05-02T15:14:59;20.34;30.56
80412;SHT30;69749;42.684;23.360;2023-05-02T15:17:25;20.30;30.69
80412;SHT30;69749;42.684;23.360;2023-05-02T15:19:51;20.35;30.41
80412;SHT30;69749;42.684;23.360;2023-05-02T15:22:16;20.14;30.80
80412;SHT30;69749;42.684;23.360;2023-05-02T15:24:42;20.28;30.40
80412;SHT30;69749;42.684;23.360;2023-05-02T15:27:07;20.18;30.31
80412;SHT30;69749;42.684;23.360;2023-05-02T15:29:33;20.23;30.42
80412;SHT30;69749;42.684;23.360;2023-05-02T15:31:59;20.10;30.50
80412;SHT30;69749;42.684;23.360;2023-05-02T15:34:25;20.17;30.26
80412;SHT30;69749;42.684;23.360;2023-05-02T15:36:51;20.16;30.09
80412;SHT30;69749;42.684;23.360;2023-05-02T15:39:16;20.01;29.49
80412;SHT30;69749;42.684;23.360;2023-05-02T15:41:43;19.90;29.78
80412;SHT30;69749;42.684;23.360;2023-05-02T15:44:12;19.96;30.17
80412;SHT30;69749;42.684;23.360;2023-05-02T15:46:37;19.86;29.96
80412;SHT30;69749;42.684;23.360;2023-05-02T15:49:04;19.93;29.96